Time;durP1;ratioP1;P1;durP2;ratioP2;P2;SDS_P1;SDS_P2;PMS_P1;PMS_P2;Temp;Humidity;BMP_temperature;BMP_pressure;BME280_temperature;BME280_humidity;BME280_pressure;Samples;Min_cycle;Max_cycle;Signal;HPM_P1;HPM_P2
2022/08/06 00:00:45;;;;;;;2.00;1.27;;;17.90;91.30;;;;;;5047769;28;20032;-61
2022/08/06 00:03:11;;;;;;;1.13;1.00;;;17.90;91.90;;;;;;5050245;28;20370;-60
2022/08/06 00:05:36;;;;;;;2.17;1.10;;;17.90;92.30;;;;;;5049531;28;20025;-61
2022/08/06 00:08:02;;;;;;;2.03;1.40;;;17.80;92.50;;;;;;5049550;28;20025;-60
2022/08/06 00:10:29;;;;;;;2.28;1.50;;;17.80;92.80;;;;;;5049802;28;20400;-61
2022/08/06 00:12:54;;;;;;;2.35;1.10;;;17.70;93.20;;;;;;5050249;28;20017;-60
2022/08/06 00:15:20;;;;;;;5.00;1.20;;;17.70;93.80;;;;;;5049664;28;20424;-59
2022/08/06 00:17:46;;;;;;;5.72;1.42;;;17.60;93.90;;;;;;5047312;28;20033;-60
2022/08/06 00:20:14;;;;;;;1.70;1.60;;;17.60;94.50;;;;;;5048779;28;20025;-60
2022/08/06 00:22:40;;;;;;;1.83;1.40;;;17.70;94.60;;;;;;5049483;28;20017;-61
2022/08/06 00:25:07;;;;;;;1.73;1.38;;;17.70;94.80;;;;;;5049408;28;20044;-59
2022/08/06 00:27:33;;;;;;;3.00;1.80;;;17.70;95.00;;;;;;5047717;28;20028;-58
2022/08/06 00:29:59;;;;;;;2.38;1.40;;;17.70;95.30;;;;;;5047033;28;20033;-58
2022/08/06 00:32:25;;;;;;;3.03;1.70;;;17.80;95.20;;;;;;5048617;28;20500;-58
2022/08/06 00:34:50;;;;;;;3.83;1.80;;;17.70;95.30;;;;;;5049057;28;20029;-59
2022/08/06 00:37:17;;;;;;;3.78;1.60;;;17.70;95.90;;;;;;5048602;28;20105;-58
2022/08/06 00:39:42;;;;;;;2.00;1.80;;;17.70;96.00;;;;;;5048347;28;20530;-58
2022/08/06 00:42:08;;;;;;;3.78;1.70;;;17.60;96.20;;;;;;5049037;28;20112;-58
2022/08/06 00:44:35;;;;;;;2.38;1.70;;;17.60;96.40;;;;;;5048316;28;20025;-58
2022/08/06 00:47:00;;;;;;;2.10;1.40;;;17.60;96.70;;;;;;5048092;28;20528;-58
2022/08/06 00:49:26;;;;;;;3.20;1.50;;;17.60;97.30;;;;;;5048410;28;20104;-58
2022/08/06 00:51:52;;;;;;;2.55;1.48;;;17.60;97.10;;;;;;5047627;28;20025;-59
2022/08/06 00:54:19;;;;;;;2.58;2.05;;;17.50;97.30;;;;;;5048477;28;20069;-58
2022/08/06 00:56:45;;;;;;;2.65;1.63;;;17.50;97.50;;;;;;5046967;28;20523;-57
2022/08/06 00:59:10;;;;;;;2.28;1.50;;;17.50;97.60;;;;;;5048894;28;20033;-58
2022/08/06 01:01:36;;;;;;;3.08;1.70;;;17.50;97.90;;;;;;5048794;28;20108;-59
2022/08/06 01:04:02;;;;;;;3.67;1.50;;;17.40;98.00;;;;;;5049342;28;20083;-58
2022/08/06 01:06:28;;;;;;;2.10;1.40;;;17.40;98.50;;;;;;5048461;28;20021;-58
2022/08/06 01:08:53;;;;;;;1.95;1.50;;;17.30;99.20;;;;;;5047925;28;20033;-58
2022/08/06 01:11:19;;;;;;;3.13;1.40;;;17.20;99.90;;;;;;5049025;28;20063;-57
2022/08/06 01:13:45;;;;;;;1.50;1.40;;;17.00;99.90;;;;;;5049334;28;20067;-58
2022/08/06 01:16:21;;;;;;;2.85;1.60;;;16.90;99.90;;;;;;5047869;28;20307;-58
2022/08/06 01:19:16;;;;;;;1.60;1.50;;;16.80;99.90;;;;;;5047637;28;20032;-57
2022/08/06 01:21:50;;;;;;;1.65;1.30;;;16.70;99.90;;;;;;5038265;28;20040;-58
2022/08/06 01:24:35;;;;;;;1.75;1.58;;;16.60;99.90;;;;;;5046893;28;20029;-58
2022/08/06 01:27:16;;;;;;;2.00;1.48;;;16.50;99.90;;;;;;5047830;28;20305;-58
2022/08/06 01:29:52;;;;;;;4.90;2.30;;;16.50;99.90;;;;;;5046662;28;20526;-58
2022/08/06 01:32:27;;;;;;;3.28;2.00;;;16.50;99.90;;;;;;5048453;28;20036;-60
2022/08/06 01:34:55;;;;;;;4.15;1.75;;;16.50;99.90;;;;;;5046889;28;20025;-61
2022/08/06 01:37:28;;;;;;;3.97;1.88;;;16.50;99.90;;;;;;5052971;28;20571;-60
2022/08/06 01:39:59;;;;;;;2.15;1.80;;;16.50;99.90;;;;;;5051840;28;20021;-60
2022/08/06 01:42:26;;;;;;;;;;;16.50;99.90;;;;;;5051023;28;20033;-60
2022/08/06 01:44:54;;;;;;;2.35;1.70;;;16.40;99.90;;;;;;5050897;28;19936;-60
2022/08/06 01:47:22;;;;;;;3.15;2.00;;;16.40;99.90;;;;;;5050799;28;20071;-60
2022/08/06 01:49:55;;;;;;;3.58;1.75;;;16.40;99.90;;;;;;5051997;28;20032;-60
2022/08/06 01:52:23;;;;;;;2.92;1.80;;;16.30;99.90;;;;;;5044251;28;20040;-60
2022/08/06 01:54:50;;;;;;;2.95;1.73;;;16.20;99.90;;;;;;5051331;28;20037;-60
2022/08/06 01:57:18;;;;;;;3.50;1.67;;;16.20;99.90;;;;;;5050322;28;20033;-61
2022/08/06 01:59:48;;;;;;;2.50;2.00;;;16.10;99.90;;;;;;5051427;28;20045;-61
2022/08/06 02:02:19;;;;;;;3.90;1.90;;;16.10;99.90;;;;;;5050860;28;20508;-60
2022/08/06 02:04:47;;;;;;;2.13;1.98;;;16.10;99.90;;;;;;5052468;28;20099;-60
2022/08/06 02:07:16;;;;;;;2.15;1.83;;;16.00;99.90;;;;;;5050672;28;20492;-60
2022/08/06 02:09:44;;;;;;;2.83;2.10;;;16.00;99.90;;;;;;5051775;28;20064;-60
2022/08/06 02:12:17;;;;;;;1.98;1.88;;;16.00;99.90;;;;;;5051481;28;20706;-60
2022/08/06 02:14:53;;;;;;;3.10;1.75;;;16.00;99.90;;;;;;5051640;28;20037;-60
2022/08/06 02:17:23;;;;;;;2.17;1.67;;;16.00;99.90;;;;;;5051440;28;20029;-60
2022/08/06 02:19:52;;;;;;;1.73;1.60;;;16.00;99.90;;;;;;5051459;28;20035;-61
2022/08/06 02:22:19;;;;;;;2.85;2.33;;;15.90;99.90;;;;;;5051471;28;20492;-60
2022/08/06 02:24:46;;;;;;;7.50;2.20;;;16.00;99.90;;;;;;5050858;28;20101;-60
2022/08/06 02:27:14;;;;;;;4.07;2.20;;;15.90;99.90;;;;;;5051666;28;20484;-60
2022/08/06 02:29:41;;;;;;;4.75;2.08;;;16.00;99.90;;;;;;5051515;28;20044;-60
2022/08/06 02:32:08;;;;;;;4.28;2.38;;;16.00;99.90;;;;;;5051002;28;20432;-60
2022/08/06 02:34:34;;;;;;;2.38;2.17;;;16.00;99.90;;;;;;5051663;28;20023;-60
2022/08/06 02:37:09;;;;;;;5.22;2.35;;;16.00;99.90;;;;;;5051629;28;20054;-60
2022/08/06 02:39:39;;;;;;;2.67;2.15;;;16.00;99.90;;;;;;5049862;28;20108;-60
2022/08/06 02:42:23;;;;;;;2.60;2.40;;;16.00;99.90;;;;;;5050916;28;20023;-61
2022/08/06 02:45:04;;;;;;;2.25;1.92;;;16.00;99.90;;;;;;5051216;28;20107;-61
2022/08/06 02:47:33;;;;;;;;;;;16.00;99.90;;;;;;5048771;28;20029;-60
2022/08/06 02:50:01;;;;;;;3.33;1.77;;;16.00;99.90;;;;;;5051146;28;19947;-60
2022/08/06 02:52:38;;;;;;;2.22;1.50;;;16.00;99.90;;;;;;5050080;28;20088;-60
2022/08/06 02:55:11;;;;;;;3.15;1.85;;;15.90;99.90;;;;;;5050434;28;20057;-60
2022/08/06 02:57:39;;;;;;;3.70;1.58;;;15.90;99.90;;;;;;5050175;28;20041;-60
2022/08/06 03:00:08;;;;;;;2.00;1.58;;;15.90;99.90;;;;;;5050971;28;20029;-60
2022/08/06 03:02:38;;;;;;;1.85;1.50;;;15.90;99.90;;;;;;5050610;28;20032;-60
2022/08/06 03:05:06;;;;;;;2.17;1.20;;;15.90;99.90;;;;;;5051839;28;20079;-60
2022/08/06 03:07:35;;;;;;;1.92;1.40;;;15.90;99.90;;;;;;5049758;28;20480;-61
2022/08/06 03:10:02;;;;;;;3.00;1.27;;;15.80;99.90;;;;;;5050147;28;20252;-60
2022/08/06 03:12:28;;;;;;;2.28;1.20;;;15.80;99.90;;;;;;5051317;28;20029;-61
2022/08/06 03:14:55;;;;;;;4.30;1.42;;;15.70;99.90;;;;;;5049647;28;20111;-61
2022/08/06 03:17:23;;;;;;;2.40;1.33;;;15.70;99.90;;;;;;5050168;28;20071;-60
2022/08/06 03:19:50;;;;;;;4.60;1.17;;;15.70;99.90;;;;;;5064252;28;20025;-60
2022/08/06 03:22:18;;;;;;;2.78;1.00;;;15.70;99.90;;;;;;5050662;28;20055;-60
2022/08/06 03:24:45;;;;;;;2.03;1.10;;;15.60;99.90;;;;;;5049961;28;20083;-60
2022/08/06 03:27:14;;;;;;;2.83;1.52;;;15.60;99.90;;;;;;5050185;28;20029;-60
2022/08/06 03:29:42;;;;;;;3.63;1.00;;;15.60;99.90;;;;;;5049717;28;20033;-60
2022/08/06 03:32:09;;;;;;;1.10;0.82;;;15.50;99.90;;;;;;5049966;28;20024;-59
2022/08/06 03:34:36;;;;;;;2.20;1.00;;;15.50;99.90;;;;;;5050773;28;20079;-60
2022/08/06 03:37:03;;;;;;;2.30;1.15;;;15.50;99.70;;;;;;5049382;28;20060;-60
2022/08/06 03:39:30;;;;;;;1.92;1.00;;;15.40;99.80;;;;;;5049928;28;20033;-59
2022/08/06 03:42:02;;;;;;;0.80;0.80;;;15.30;99.70;;;;;;5048420;28;20124;-60
2022/08/06 03:44:28;;;;;;;1.30;0.90;;;15.20;97.80;;;;;;5049557;28;20096;-59
2022/08/06 03:47:06;;;;;;;0.93;0.85;;;15.30;97.30;;;;;;5049386;28;20567;-60
2022/08/06 03:49:38;;;;;;;1.42;1.10;;;15.20;96.90;;;;;;5050944;28;20486;-60
2022/08/06 03:52:06;;;;;;;2.75;0.85;;;15.20;97.10;;;;;;5049233;28;20075;-60
2022/08/06 03:54:36;;;;;;;1.35;0.85;;;15.10;97.50;;;;;;5050143;28;20522;-60
2022/08/06 03:57:11;;;;;;;1.40;0.88;;;15.10;97.30;;;;;;5048722;28;20404;-60
2022/08/06 03:59:43;;;;;;;1.05;0.80;;;15.10;97.60;;;;;;5047923;28;20156;-60
2022/08/06 04:02:10;;;;;;;1.20;0.80;;;15.10;97.90;;;;;;5050181;28;20021;-60
2022/08/06 04:04:37;;;;;;;1.42;0.75;;;15.00;97.50;;;;;;5032924;28;20029;-60
2022/08/06 04:07:03;;;;;;;1.80;0.90;;;15.00;97.90;;;;;;5049650;28;20420;-60
2022/08/06 04:09:31;;;;;;;2.92;0.85;;;14.90;98.00;;;;;;5048399;28;20029;-60
2022/08/06 04:11:57;;;;;;;1.17;0.80;;;14.90;98.60;;;;;;5049641;28;20384;-60
2022/08/06 04:14:24;;;;;;;1.85;0.90;;;14.90;98.00;;;;;;5049103;28;20064;-61
2022/08/06 04:16:51;;;;;;;3.25;0.70;;;14.90;98.10;;;;;;5050387;28;20454;-60
2022/08/06 04:19:18;;;;;;;0.95;0.80;;;14.90;98.20;;;;;;5048792;28;20064;-60
2022/08/06 04:21:46;;;;;;;1.33;0.95;;;14.80;98.70;;;;;;5048634;28;20163;-60
2022/08/06 04:24:12;;;;;;;3.30;0.80;;;14.80;98.80;;;;;;5049541;28;20025;-60
2022/08/06 04:26:39;;;;;;;2.20;0.80;;;14.80;98.30;;;;;;5048326;28;20044;-59
2022/08/06 04:29:08;;;;;;;1.10;0.70;;;14.90;97.90;;;;;;5048912;28;20017;-60
2022/08/06 04:31:36;;;;;;;2.05;0.70;;;14.90;97.60;;;;;;5049375;28;20021;-59
2022/08/06 04:34:02;;;;;;;1.30;0.70;;;14.90;97.30;;;;;;5049365;28;20056;-59
2022/08/06 04:36:32;;;;;;;4.13;0.90;;;15.00;97.50;;;;;;5047348;28;20084;-60
2022/08/06 04:38:58;;;;;;;1.40;1.02;;;15.00;97.80;;;;;;5048683;28;20044;-59
2022/08/06 04:41:24;;;;;;;1.05;0.63;;;15.00;96.50;;;;;;5046790;28;20124;-60
2022/08/06 04:43:50;;;;;;;1.33;0.70;;;15.10;96.80;;;;;;5049418;28;20096;-64
2022/08/06 04:46:16;;;;;;;1.40;0.80;;;15.10;96.30;;;;;;5049290;28;20484;-59
2022/08/06 04:48:42;;;;;;;1.92;0.80;;;15.10;96.50;;;;;;5048741;28;20033;-60
2022/08/06 04:51:08;;;;;;;0.85;0.60;;;15.10;96.30;;;;;;5048970;28;20029;-60
2022/08/06 04:53:41;;;;;;;1.02;0.70;;;15.20;96.40;;;;;;5048548;28;20025;-61
2022/08/06 04:56:08;;;;;;;1.40;0.57;;;15.20;95.90;;;;;;5048508;28;20029;-60
2022/08/06 04:58:34;;;;;;;1.65;0.60;;;15.10;96.80;;;;;;5048812;28;20025;-60
2022/08/06 05:01:01;;;;;;;1.27;0.60;;;15.20;96.20;;;;;;5049003;28;20676;-60
2022/08/06 05:03:28;;;;;;;1.23;0.60;;;15.30;96.10;;;;;;5049016;28;20079;-59
2022/08/06 05:06:09;;;;;;;1.08;0.60;;;15.40;96.20;;;;;;5048479;28;20492;-59
2022/08/06 05:08:39;;;;;;;7.85;0.77;;;15.40;96.00;;;;;;5046069;28;20388;-60
2022/08/06 05:11:20;;;;;;;0.90;0.60;;;15.60;95.50;;;;;;5045936;28;20028;-61
2022/08/06 05:13:53;;;;;;;4.57;1.25;;;15.70;96.20;;;;;;5048738;28;20361;-60
2022/08/06 05:16:20;;;;;;;1.23;0.50;;;15.90;94.70;;;;;;5046559;28;20034;-60
2022/08/06 05:18:54;;;;;;;0.68;0.50;;;16.00;93.60;;;;;;5048437;28;20021;-60
2022/08/06 05:21:30;;;;;;;2.05;0.57;;;16.20;92.90;;;;;;5047973;28;20032;-60
2022/08/06 05:23:57;;;;;;;0.82;0.50;;;16.50;93.20;;;;;;5049129;28;20424;-60
2022/08/06 05:26:23;;;;;;;0.93;0.52;;;17.00;91.70;;;;;;5047797;28;20572;-60
2022/08/06 05:28:49;;;;;;;0.98;0.50;;;17.40;88.50;;;;;;5049253;28;20029;-61
2022/08/06 05:31:15;;;;;;;2.38;0.50;;;17.70;86.40;;;;;;5047060;28;20484;-60
2022/08/06 05:33:41;;;;;;;1.20;0.57;;;18.50;84.30;;;;;;5063943;28;20109;-60
2022/08/06 05:36:09;;;;;;;1.83;0.77;;;19.30;79.20;;;;;;5047862;28;20028;-59
2022/08/06 05:38:40;;;;;;;0.73;0.70;;;20.30;75.20;;;;;;5048541;28;20033;-60
2022/08/06 05:41:10;;;;;;;0.90;0.50;;;21.20;70.70;;;;;;5048605;28;20028;-60
2022/08/06 05:43:37;;;;;;;1.40;0.73;;;21.40;67.60;;;;;;5048454;28;20021;-60
2022/08/06 05:46:11;;;;;;;2.08;0.73;;;21.50;67.30;;;;;;5048065;28;20040;-60
2022/08/06 05:48:45;;;;;;;2.63;1.00;;;21.30;66.50;;;;;;5047464;28;20033;-60
2022/08/06 05:51:18;;;;;;;1.13;0.55;;;20.90;66.90;;;;;;5047714;28;20045;-57
2022/08/06 05:53:48;;;;;;;1.33;0.50;;;20.40;67.40;;;;;;5047675;28;20493;-57
2022/08/06 05:56:20;;;;;;;1.25;0.55;;;20.00;69.50;;;;;;5047664;28;20045;-57
2022/08/06 05:58:58;;;;;;;1.23;0.50;;;20.10;70.20;;;;;;5047274;28;20025;-58
2022/08/06 06:01:25;;;;;;;0.68;0.50;;;20.70;68.50;;;;;;5047799;28;20044;-59
2022/08/06 06:03:55;;;;;;;0.85;0.55;;;21.50;66.50;;;;;;5048062;28;20029;-58
2022/08/06 06:06:22;;;;;;;2.17;0.60;;;22.60;64.00;;;;;;5030218;28;20029;-58
2022/08/06 06:08:49;;;;;;;3.20;0.65;;;23.50;60.00;;;;;;5047816;28;20447;-58
2022/08/06 06:11:17;;;;;;;1.80;0.65;;;24.20;58.20;;;;;;5047609;28;20101;-58
2022/08/06 06:13:46;;;;;;;0.95;0.40;;;24.80;56.60;;;;;;5039162;28;20033;-58
2022/08/06 06:16:29;;;;;;;1.85;0.40;;;25.50;55.70;;;;;;5047118;28;20033;-58
2022/08/06 06:19:07;;;;;;;0.50;0.40;;;26.00;53.30;;;;;;5048571;28;20394;-58
2022/08/06 06:21:56;;;;;;;4.18;0.77;;;26.00;52.50;;;;;;5048373;28;20444;-57
2022/08/06 06:24:27;;;;;;;0.80;0.32;;;26.10;52.30;;;;;;5051239;28;20041;-57
2022/08/06 06:27:17;;;;;;;1.27;0.40;;;26.10;52.30;;;;;;5050611;28;20428;-57
2022/08/06 06:30:02;;;;;;;0.68;0.50;;;26.40;51.50;;;;;;5050152;28;20113;-59
2022/08/06 06:32:52;;;;;;;2.10;0.50;;;26.80;51.60;;;;;;5032301;28;20025;-57
2022/08/06 06:35:35;;;;;;;2.03;0.50;;;27.50;49.90;;;;;;5050328;28;20037;-57
2022/08/06 06:38:06;;;;;;;1.48;0.50;;;27.60;48.70;;;;;;5049519;28;20013;-61
2022/08/06 06:40:48;;;;;;;0.98;0.47;;;27.50;47.80;;;;;;5034111;28;20028;-61
2022/08/06 06:43:22;;;;;;;1.63;0.60;;;27.10;48.30;;;;;;5050496;28;20032;-61
2022/08/06 06:45:56;;;;;;;0.82;0.40;;;27.10;49.10;;;;;;5050998;28;20021;-61
2022/08/06 06:48:45;;;;;;;3.38;0.43;;;27.10;48.80;;;;;;5048346;28;20118;-61
2022/08/06 06:51:42;;;;;;;3.15;0.50;;;27.40;48.90;;;;;;5049892;28;20527;-61
2022/08/06 06:54:16;;;;;;;1.70;0.50;;;27.70;48.80;;;;;;5024365;28;20036;-61
2022/08/06 06:56:45;;;;;;;3.65;0.60;;;28.10;47.80;;;;;;5050019;28;20037;-61
2022/08/06 06:59:18;;;;;;;1.10;0.40;;;28.50;46.50;;;;;;5048554;28;20055;-61
2022/08/06 07:01:46;;;;;;;2.10;0.50;;;28.60;45.80;;;;;;5050980;28;20021;-61
2022/08/06 07:04:16;;;;;;;0.95;0.40;;;28.40;46.50;;;;;;5050859;28;20021;-64
2022/08/06 07:06:44;;;;;;;2.53;0.30;;;28.80;46.30;;;;;;5050015;28;20036;-65
2022/08/06 07:09:23;;;;;;;4.15;0.77;;;29.20;45.00;;;;;;5050850;28;20059;-65
2022/08/06 07:11:51;;;;;;;2.33;0.70;;;29.60;44.50;;;;;;5051112;28;20029;-63
2022/08/06 07:14:20;;;;;;;1.25;0.43;;;29.90;44.40;;;;;;5050758;28;20384;-62
2022/08/06 07:16:46;;;;;;;2.10;0.40;;;29.90;43.90;;;;;;5050833;28;20543;-63
2022/08/06 07:19:13;;;;;;;1.73;0.40;;;30.10;43.80;;;;;;5050936;28;20081;-63
2022/08/06 07:21:41;;;;;;;3.70;0.55;;;30.30;42.50;;;;;;5048590;28;20393;-62
2022/08/06 07:24:10;;;;;;;0.75;0.30;;;30.20;43.20;;;;;;5049140;28;20079;-63
2022/08/06 07:26:37;;;;;;;14.02;0.73;;;30.40;42.50;;;;;;5049769;28;20017;-63
2022/08/06 07:29:03;;;;;;;2.33;0.40;;;30.50;42.10;;;;;;5051047;28;20389;-63
2022/08/06 07:31:29;;;;;;;1.27;0.35;;;30.60;41.60;;;;;;5050559;28;20389;-63
2022/08/06 07:33:56;;;;;;;1.75;0.50;;;31.00;41.60;;;;;;5048307;28;20516;-63
2022/08/06 07:36:26;;;;;;;1.52;0.40;;;31.10;41.20;;;;;;5049643;28;20408;-63
2022/08/06 07:38:58;;;;;;;0.60;0.30;;;31.20;41.40;;;;;;5048334;28;20404;-63
2022/08/06 07:41:26;;;;;;;0.77;0.30;;;31.70;41.00;;;;;;5049966;28;20044;-64
2022/08/06 07:43:53;;;;;;;1.52;0.40;;;31.80;39.60;;;;;;5049642;28;20173;-63
2022/08/06 07:46:26;;;;;;;0.70;0.30;;;32.00;39.70;;;;;;5031775;28;20409;-63
2022/08/06 07:49:04;;;;;;;1.10;0.35;;;32.20;38.70;;;;;;5049095;28;20179;-64
2022/08/06 07:51:34;;;;;;;3.72;0.50;;;32.40;38.80;;;;;;5049268;28;20033;-63
2022/08/06 07:54:01;;;;;;;0.57;0.30;;;32.70;38.20;;;;;;5050207;28;20612;-63
2022/08/06 07:56:28;;;;;;;2.72;0.30;;;33.00;37.60;;;;;;5049048;28;20086;-63
2022/08/06 07:58:54;;;;;;;0.73;0.20;;;33.00;38.20;;;;;;5049473;28;20451;-63
2022/08/06 08:01:20;;;;;;;0.90;0.40;;;32.70;38.10;;;;;;5048707;28;20047;-63
2022/08/06 08:06:32;;;;;;;1.40;0.30;;;32.90;37.70;;;;;;5048727;28;20452;-66
2022/08/06 08:09:13;;;;;;;0.68;0.30;;;32.90;36.90;;;;;;5049755;28;20025;-63
2022/08/06 08:11:42;;;;;;;2.35;0.43;;;33.40;36.20;;;;;;5049025;28;20033;-65
2022/08/06 08:14:10;;;;;;;1.45;0.40;;;34.00;36.20;;;;;;5049364;28;20025;-63
2022/08/06 08:16:37;;;;;;;1.23;0.40;;;34.10;35.50;;;;;;5049341;28;20032;-63
2022/08/06 08:19:21;;;;;;;1.58;0.38;;;33.90;35.20;;;;;;5048763;28;20040;-65
2022/08/06 08:21:46;;;;;;;0.65;0.30;;;33.90;35.80;;;;;;5048612;28;20389;-63
2022/08/06 08:24:13;;;;;;;1.00;0.28;;;33.90;35.80;;;;;;5047813;28;20025;-63
2022/08/06 08:26:38;;;;;;;0.65;0.20;;;33.40;36.00;;;;;;5048689;28;20033;-63
2022/08/06 08:29:04;;;;;;;0.98;0.32;;;33.20;36.50;;;;;;5049618;28;20036;-63
2022/08/06 08:31:30;;;;;;;1.92;0.50;;;33.00;36.30;;;;;;5048425;28;20088;-64
2022/08/06 08:33:55;;;;;;;1.83;0.50;;;32.90;36.20;;;;;;5049333;28;20029;-65
2022/08/06 08:36:23;;;;;;;1.67;0.35;;;33.00;37.40;;;;;;5048003;28;20033;-63
2022/08/06 08:38:48;;;;;;;0.40;0.15;;;32.90;36.80;;;;;;5048486;28;20021;-63
2022/08/06 08:41:21;;;;;;;1.65;0.30;;;33.40;36.60;;;;;;5048323;28;20496;-64
2022/08/06 08:43:52;;;;;;;0.50;0.20;;;33.90;36.10;;;;;;5049496;28;20029;-63
2022/08/06 08:46:18;;;;;;;;;;;34.30;35.70;;;;;;5049307;28;20408;-63
2022/08/06 08:48:44;;;;;;;1.13;0.40;;;33.90;36.00;;;;;;5063373;28;19924;-63
2022/08/06 08:51:12;;;;;;;0.88;0.30;;;33.90;35.60;;;;;;5048132;28;20093;-63
2022/08/06 08:53:47;;;;;;;2.22;0.50;;;34.60;35.50;;;;;;5047855;28;20047;-63
2022/08/06 08:56:14;;;;;;;1.38;0.40;;;34.50;34.50;;;;;;5048327;28;20045;-63
2022/08/06 08:58:41;;;;;;;1.17;0.30;;;34.70;35.10;;;;;;5046766;28;20025;-64
2022/08/06 09:01:08;;;;;;;0.88;0.35;;;34.90;34.70;;;;;;5048867;28;20045;-63
2022/08/06 09:03:40;;;;;;;1.35;0.30;;;34.80;33.80;;;;;;5049367;28;20112;-63
2022/08/06 09:06:07;;;;;;;1.70;0.40;;;35.00;34.00;;;;;;5047913;28;20108;-63
2022/08/06 09:08:33;;;;;;;0.40;0.30;;;34.70;33.20;;;;;;5047524;28;20033;-63
2022/08/06 09:10:59;;;;;;;1.25;0.40;;;34.30;34.20;;;;;;5047316;28;20025;-64
2022/08/06 09:13:27;;;;;;;0.63;0.20;;;34.20;34.90;;;;;;5048922;28;20040;-65
2022/08/06 09:15:54;;;;;;;0.45;0.30;;;34.30;35.10;;;;;;5047674;28;20029;-63
2022/08/06 09:18:20;;;;;;;1.63;0.30;;;34.20;33.60;;;;;;5048655;28;20163;-64
2022/08/06 09:20:46;;;;;;;0.57;0.25;;;33.90;34.60;;;;;;5045906;28;20026;-63
2022/08/06 09:23:15;;;;;;;0.38;0.22;;;33.60;34.20;;;;;;5047920;28;20052;-63
2022/08/06 09:25:42;;;;;;;0.88;0.40;;;33.30;35.20;;;;;;5048919;28;20083;-64
2022/08/06 09:28:29;;;;;;;0.82;0.30;;;33.30;34.60;;;;;;5047976;28;20052;-64
2022/08/06 09:31:13;;;;;;;1.90;0.50;;;33.10;34.90;;;;;;5048098;28;20064;-66
2022/08/06 09:33:42;;;;;;;1.63;0.35;;;33.00;34.90;;;;;;5047983;28;20036;-65
2022/08/06 09:36:10;;;;;;;2.10;0.35;;;33.20;35.30;;;;;;5048550;28;20026;-64
2022/08/06 09:38:46;;;;;;;2.42;0.50;;;33.20;35.30;;;;;;5047477;28;20060;-64
2022/08/06 09:41:13;;;;;;;9.40;0.70;;;33.20;35.30;;;;;;5048267;28;20419;-64
2022/08/06 09:43:39;;;;;;;2.45;0.35;;;33.30;35.50;;;;;;5048838;28;20051;-64
2022/08/06 09:46:05;;;;;;;1.77;0.32;;;33.60;34.80;;;;;;5047936;28;20116;-63
2022/08/06 09:48:31;;;;;;;0.88;0.30;;;33.40;35.70;;;;;;5048582;28;20037;-64
2022/08/06 09:50:57;;;;;;;2.50;0.40;;;33.60;34.70;;;;;;5047827;28;20041;-64
2022/08/06 09:53:24;;;;;;;1.00;0.30;;;33.20;35.60;;;;;;5048685;28;20511;-64
2022/08/06 09:55:51;;;;;;;1.05;0.35;;;33.00;35.90;;;;;;5048103;28;20037;-66
2022/08/06 09:58:46;;;;;;;1.52;0.40;;;33.00;35.70;;;;;;5051470;28;20025;-64
2022/08/06 10:01:22;;;;;;;0.22;0.15;;;32.90;34.80;;;;;;5037909;28;20017;-67
2022/08/06 10:03:49;;;;;;;1.23;0.30;;;32.10;36.60;;;;;;5052834;28;20029;-64
2022/08/06 10:06:20;;;;;;;3.92;0.57;;;32.00;35.00;;;;;;5051924;28;20029;-64
2022/08/06 10:08:47;;;;;;;2.15;0.40;;;31.80;37.30;;;;;;5051748;28;20481;-64
2022/08/06 10:11:13;;;;;;;0.90;0.30;;;32.00;36.70;;;;;;5051939;28;20044;-63
2022/08/06 10:13:45;;;;;;;0.35;0.30;;;32.40;36.10;;;;;;5052100;28;20025;-63
2022/08/06 10:16:29;;;;;;;3.38;0.40;;;32.70;34.90;;;;;;5049760;28;20101;-63
2022/08/06 10:18:57;;;;;;;3.15;0.40;;;32.50;35.90;;;;;;5047466;28;20042;-64
2022/08/06 10:21:28;;;;;;;0.50;0.28;;;32.80;36.60;;;;;;5045288;28;20044;-64
2022/08/06 10:23:59;;;;;;;0.40;0.20;;;33.00;35.00;;;;;;5046185;28;20052;-64
2022/08/06 10:26:30;;;;;;;1.27;0.30;;;32.40;35.30;;;;;;5050406;28;20033;-63
2022/08/06 10:29:03;;;;;;;0.70;0.30;;;32.90;35.50;;;;;;5052315;28;20029;-64
2022/08/06 10:31:30;;;;;;;2.58;0.32;;;33.00;33.50;;;;;;5050808;28;20052;-64
2022/08/06 10:34:20;;;;;;;2.78;0.60;;;33.30;34.50;;;;;;5051557;28;20412;-64
2022/08/06 10:36:58;;;;;;;0.50;0.30;;;33.50;34.20;;;;;;5050667;28;20032;-63
2022/08/06 10:39:31;;;;;;;0.90;0.30;;;33.50;34.20;;;;;;5051302;28;20044;-63
2022/08/06 10:41:58;;;;;;;0.50;0.30;;;33.60;34.90;;;;;;5049218;28;20228;-64
2022/08/06 10:44:24;;;;;;;0.30;0.20;;;33.70;34.00;;;;;;5051275;28;20025;-64
2022/08/06 10:46:53;;;;;;;0.47;0.30;;;33.60;34.30;;;;;;5049640;28;20416;-65
2022/08/06 10:49:22;;;;;;;0.40;0.25;;;33.60;34.40;;;;;;5050675;28;20085;-64
2022/08/06 10:51:49;;;;;;;1.65;0.47;;;33.50;33.70;;;;;;5050869;28;20028;-63
2022/08/06 10:54:19;;;;;;;3.50;0.30;;;33.60;33.60;;;;;;5049274;28;20040;-64
2022/08/06 10:56:48;;;;;;;3.42;0.50;;;33.30;34.90;;;;;;5050040;28;21020;-66
2022/08/06 10:59:15;;;;;;;2.83;0.30;;;33.40;34.30;;;;;;5049134;28;20032;-64
2022/08/06 11:01:59;;;;;;;6.75;0.30;;;33.40;33.50;;;;;;5051471;28;20499;-63
2022/08/06 11:04:52;;;;;;;1.75;0.32;;;33.20;32.90;;;;;;5050179;28;20536;-63
2022/08/06 11:07:21;;;;;;;0.68;0.20;;;32.70;33.10;;;;;;5050453;28;20501;-64
2022/08/06 11:10:01;;;;;;;0.20;0.20;;;32.50;35.10;;;;;;5048947;28;20041;-64
2022/08/06 11:12:33;;;;;;;;;;;32.50;34.50;;;;;;5051791;28;20033;-63
2022/08/06 11:15:00;;;;;;;0.95;0.20;;;32.50;34.60;;;;;;5049763;28;20003;-64
2022/08/06 11:17:40;;;;;;;0.47;0.30;;;32.00;33.80;;;;;;5049969;28;20040;-63
2022/08/06 11:20:06;;;;;;;0.88;0.25;;;30.10;36.00;;;;;;5050783;28;20036;-64
2022/08/06 11:22:37;;;;;;;1.55;0.30;;;30.00;37.10;;;;;;5050634;28;20029;-64
2022/08/06 11:25:05;;;;;;;2.10;0.30;;;29.90;38.70;;;;;;5050751;28;20021;-63
2022/08/06 11:27:51;;;;;;;2.33;0.32;;;30.20;36.90;;;;;;5049573;28;20029;-63
2022/08/06 11:30:18;;;;;;;1.70;0.30;;;30.00;37.10;;;;;;5050112;28;20029;-63
2022/08/06 11:32:52;;;;;;;0.88;0.30;;;30.10;36.30;;;;;;5050423;28;20021;-62
2022/08/06 11:35:33;;;;;;;2.35;0.40;;;30.20;36.40;;;;;;5048633;28;20627;-63
2022/08/06 11:38:00;;;;;;;0.60;0.30;;;30.40;37.20;;;;;;5050385;28;20021;-63
2022/08/06 11:40:25;;;;;;;1.38;0.30;;;30.50;36.40;;;;;;5050049;28;20103;-65
2022/08/06 11:42:54;;;;;;;1.17;0.40;;;30.50;36.80;;;;;;5048809;28;20508;-63
2022/08/06 11:45:19;;;;;;;0.73;0.30;;;30.60;36.80;;;;;;5048820;28;20036;-63
2022/08/06 11:48:05;;;;;;;0.95;0.30;;;30.70;36.70;;;;;;5049381;28;20045;-63
2022/08/06 11:50:31;;;;;;;1.65;0.40;;;30.20;36.40;;;;;;5041072;28;20113;-64
2022/08/06 11:52:57;;;;;;;1.65;0.40;;;29.10;37.00;;;;;;5049624;28;20126;-64
2022/08/06 11:55:23;;;;;;;1.20;0.40;;;29.00;37.60;;;;;;5048294;28;20515;-63
2022/08/06 11:57:50;;;;;;;0.28;0.20;;;28.60;37.90;;;;;;5047104;28;20394;-65
2022/08/06 12:00:19;;;;;;;0.75;0.35;;;27.90;40.50;;;;;;5048799;28;20492;-64
2022/08/06 12:02:53;;;;;;;1.08;0.40;;;28.10;40.00;;;;;;5048820;28;20025;-64
2022/08/06 12:05:21;;;;;;;4.45;0.50;;;27.80;38.80;;;;;;5048910;28;20039;-63
2022/08/06 12:08:19;;;;;;;1.65;0.35;;;27.80;40.90;;;;;;5050329;28;20017;-64
2022/08/06 12:11:22;;;;;;;1.35;0.30;;;27.20;39.90;;;;;;5044362;28;20029;-63
2022/08/06 12:13:48;;;;;;;1.00;0.28;;;27.00;41.60;;;;;;5021111;28;20036;-63
2022/08/06 12:16:31;;;;;;;4.00;0.40;;;26.70;41.60;;;;;;5064829;28;20033;-63
2022/08/06 12:18:57;;;;;;;0.30;0.30;;;26.50;41.60;;;;;;5049604;28;20033;-64
2022/08/06 12:21:24;;;;;;;1.02;0.40;;;26.40;42.50;;;;;;5048843;28;20032;-65
2022/08/06 12:23:53;;;;;;;1.15;0.40;;;26.80;42.70;;;;;;5048782;28;20381;-63
2022/08/06 12:26:21;;;;;;;2.85;0.40;;;27.10;42.50;;;;;;5046491;28;20033;-63
2022/08/06 12:28:48;;;;;;;1.95;0.40;;;27.90;40.20;;;;;;5050036;28;20390;-63
2022/08/06 12:31:28;;;;;;;1.08;0.40;;;28.40;39.20;;;;;;5047948;28;20051;-65
2022/08/06 12:33:53;;;;;;;1.67;0.40;;;28.50;39.50;;;;;;5049310;28;20092;-65
2022/08/06 12:36:19;;;;;;;4.05;0.47;;;28.90;38.20;;;;;;5048518;28;20052;-63
2022/08/06 12:38:57;;;;;;;0.65;0.40;;;29.10;38.20;;;;;;5049006;28;20036;-62
2022/08/06 12:41:22;;;;;;;2.08;0.40;;;29.10;38.10;;;;;;5049276;28;20032;-63
2022/08/06 12:43:48;;;;;;;0.75;0.38;;;29.40;37.50;;;;;;5049363;28;20040;-63
2022/08/06 12:46:15;;;;;;;0.30;0.30;;;29.50;37.20;;;;;;5048548;28;20128;-64
2022/08/06 12:48:49;;;;;;;0.57;0.30;;;29.70;36.30;;;;;;5048560;28;20550;-63
2022/08/06 12:51:15;;;;;;;0.43;0.30;;;29.90;35.60;;;;;;5048181;28;20060;-63
2022/08/06 12:53:52;;;;;;;1.48;0.22;;;29.90;35.70;;;;;;5048699;28;20184;-63
2022/08/06 12:56:20;;;;;;;0.55;0.25;;;30.00;36.40;;;;;;5048748;28;20029;-63
2022/08/06 12:58:46;;;;;;;0.30;0.30;;;30.30;36.10;;;;;;5049118;28;20021;-63
2022/08/06 13:01:17;;;;;;;1.10;0.40;;;30.20;34.10;;;;;;5047628;28;20025;-66
2022/08/06 13:03:48;;;;;;;0.30;0.30;;;30.10;35.30;;;;;;5049509;28;20033;-62
2022/08/06 13:06:17;;;;;;;0.95;0.30;;;30.20;36.00;;;;;;5048247;28;20056;-65